Time;durP1;ratioP1;P1;durP2;ratioP2;P2;SDS_P1;SDS_P2;PMS_P1;PMS_P2;Temp;Humidity;BMP_temperature;BMP_pressure;BME280_temperature;BME280_humidity;BME280_pressure;Samples;Min_cycle;Max_cycle;Signal;HPM_P1;HPM_P2
2023/03/25 00:00:16;;;;;;;2.30;0.60;;;11.80;99.90;;;;;;4981303;28;20172;-68
2023/03/25 00:02:47;;;;;;;2.55;0.70;;;11.80;99.90;;;;;;4989036;28;20172;-63
2023/03/25 00:05:13;;;;;;;2.33;0.68;;;11.70;99.90;;;;;;4992507;28;20211;-66
2023/03/25 00:07:40;;;;;;;1.33;0.70;;;11.70;99.90;;;;;;4972117;28;20183;-68
2023/03/25 00:10:10;;;;;;;1.70;0.55;;;11.70;99.90;;;;;;4976042;28;20767;-66
2023/03/25 00:12:39;;;;;;;1.83;0.60;;;11.60;99.90;;;;;;4975132;28;20211;-68
2023/03/25 00:15:07;;;;;;;1.33;0.65;;;11.60;99.90;;;;;;4992680;28;20203;-65
2023/03/25 00:17:35;;;;;;;1.30;0.70;;;11.60;99.90;;;;;;4975616;28;20184;-66
2023/03/25 00:20:04;;;;;;;2.15;0.52;;;11.50;99.90;;;;;;4976054;28;20204;-68
2023/03/25 00:22:32;;;;;;;2.95;0.60;;;11.50;99.90;;;;;;4972759;28;20208;-67
2023/03/25 00:24:58;;;;;;;2.17;0.70;;;11.50;99.90;;;;;;4974618;28;20201;-68
2023/03/25 00:27:26;;;;;;;1.20;0.60;;;11.50;99.90;;;;;;4985195;28;20180;-67
2023/03/25 00:29:51;;;;;;;1.27;0.50;;;11.50;99.90;;;;;;4980735;28;20244;-66
2023/03/25 00:32:23;;;;;;;2.88;0.65;;;11.50;99.90;;;;;;4971260;28;20344;-69
2023/03/25 00:34:48;;;;;;;3.75;0.75;;;11.40;99.90;;;;;;4990466;28;20180;-61
2023/03/25 00:37:21;;;;;;;3.72;1.05;;;11.50;99.90;;;;;;4990602;28;20195;-65
2023/03/25 00:39:47;;;;;;;1.77;0.65;;;11.50;99.90;;;;;;4988445;28;20186;-68
2023/03/25 00:42:24;;;;;;;2.28;0.73;;;11.50;99.90;;;;;;4991275;28;20271;-66
2023/03/25 00:44:50;;;;;;;2.05;0.70;;;11.50;99.90;;;;;;4983488;28;20221;-67
2023/03/25 00:47:17;;;;;;;0.95;0.52;;;11.50;99.90;;;;;;4981768;28;20208;-68
2023/03/25 00:49:46;;;;;;;1.98;0.70;;;11.50;99.90;;;;;;4975797;28;20202;-68
2023/03/25 00:52:14;;;;;;;1.80;0.77;;;11.50;99.90;;;;;;4989020;28;20212;-68
2023/03/25 00:54:44;;;;;;;1.75;0.73;;;11.50;99.90;;;;;;4972919;28;20204;-66
2023/03/25 00:57:10;;;;;;;3.88;0.82;;;11.50;99.90;;;;;;4972543;28;20184;-66
2023/03/25 00:59:38;;;;;;;1.45;0.60;;;11.50;99.90;;;;;;4972932;28;20173;-66
2023/03/25 01:02:08;;;;;;;2.17;0.70;;;11.50;99.90;;;;;;4974929;28;20381;-68
2023/03/25 01:04:36;;;;;;;1.38;0.63;;;11.50;99.90;;;;;;4975123;28;20212;-67
2023/03/25 01:07:02;;;;;;;1.45;0.68;;;11.50;99.90;;;;;;4981495;28;20181;-67
2023/03/25 01:09:28;;;;;;;2.10;0.68;;;11.60;99.90;;;;;;4975748;28;20195;-63
2023/03/25 01:11:56;;;;;;;2.85;0.80;;;11.60;99.90;;;;;;4986112;28;20210;-67
2023/03/25 01:14:28;;;;;;;2.05;0.70;;;11.60;99.90;;;;;;4991961;28;20235;-66
2023/03/25 01:16:54;;;;;;;1.20;0.50;;;11.60;99.90;;;;;;4958805;28;20177;-67
2023/03/25 01:19:22;;;;;;;1.52;0.77;;;11.60;99.90;;;;;;4981696;28;20180;-68
2023/03/25 01:21:48;;;;;;;1.75;0.70;;;11.60;99.90;;;;;;4992128;28;20207;-66
2023/03/25 01:24:16;;;;;;;1.02;0.50;;;11.60;99.90;;;;;;4977288;28;20247;-67
2023/03/25 01:26:44;;;;;;;1.55;0.80;;;11.60;99.90;;;;;;4975970;28;20212;-67
2023/03/25 01:29:11;;;;;;;1.73;0.50;;;11.60;99.90;;;;;;4965533;28;20184;-67
2023/03/25 01:31:39;;;;;;;1.65;0.60;;;11.60;99.90;;;;;;4975766;28;20218;-67
2023/03/25 01:34:06;;;;;;;1.15;0.63;;;11.60;99.90;;;;;;4980488;28;20286;-68
2023/03/25 01:36:38;;;;;;;1.52;0.70;;;11.60;99.90;;;;;;4992167;28;20180;-69
2023/03/25 01:39:05;;;;;;;1.67;0.60;;;11.60;99.90;;;;;;4976160;28;20211;-68
2023/03/25 01:41:33;;;;;;;2.28;1.02;;;11.60;99.90;;;;;;4990886;28;20185;-67
2023/03/25 01:44:04;;;;;;;0.80;0.50;;;11.60;99.90;;;;;;4972623;28;20271;-68
2023/03/25 01:46:33;;;;;;;2.05;0.80;;;11.70;99.90;;;;;;4972736;28;20184;-68
2023/03/25 01:49:05;;;;;;;2.40;0.80;;;11.60;99.90;;;;;;4985846;28;20176;-68
2023/03/25 01:51:35;;;;;;;2.65;0.80;;;11.60;99.90;;;;;;4991845;28;20200;-68
2023/03/25 01:54:01;;;;;;;2.65;0.70;;;11.60;99.90;;;;;;4991236;28;20196;-68
2023/03/25 01:56:33;;;;;;;1.30;0.60;;;11.70;99.90;;;;;;4992191;28;20230;-66
2023/03/25 01:59:04;;;;;;;2.40;0.70;;;11.60;99.90;;;;;;4997574;28;20196;-69
2023/03/25 02:01:30;;;;;;;1.15;0.60;;;11.70;99.90;;;;;;4973762;28;20234;-69
2023/03/25 02:04:01;;;;;;;1.63;0.60;;;11.70;99.90;;;;;;4986829;28;20180;-69
2023/03/25 02:06:45;;;;;;;3.47;0.70;;;11.70;99.90;;;;;;4975057;28;20203;-69
2023/03/25 02:09:14;;;;;;;3.05;0.82;;;11.70;99.90;;;;;;4990806;28;20230;-69
2023/03/25 02:11:42;;;;;;;1.80;0.70;;;11.70;99.90;;;;;;4971209;28;20198;-69
2023/03/25 02:14:12;;;;;;;2.70;0.80;;;11.70;99.90;;;;;;4973277;28;20513;-67
2023/03/25 02:17:11;;;;;;;2.65;1.13;;;11.60;99.90;;;;;;4976304;28;20187;-67
2023/03/25 02:19:44;;;;;;;2.95;0.80;;;11.70;99.90;;;;;;4994284;28;20231;-70
2023/03/25 02:22:41;;;;;;;1.75;0.70;;;11.60;99.90;;;;;;4995137;28;20443;-67
2023/03/25 02:25:44;;;;;;;2.10;0.70;;;11.70;99.90;;;;;;4994819;28;20184;-69
2023/03/25 02:28:34;;;;;;;1.58;0.88;;;11.60;99.90;;;;;;4989881;28;20207;-69
2023/03/25 02:31:27;;;;;;;2.60;0.80;;;11.60;99.90;;;;;;4975770;28;20179;-69
2023/03/25 02:34:04;;;;;;;2.75;0.70;;;11.60;99.90;;;;;;4982529;28;20470;-69
2023/03/25 02:36:47;;;;;;;1.90;0.75;;;11.60;99.90;;;;;;4979592;28;20203;-69
2023/03/25 02:39:46;;;;;;;1.65;0.70;;;11.60;99.90;;;;;;4991490;28;20326;-68
2023/03/25 02:42:30;;;;;;;2.20;0.80;;;11.60;99.90;;;;;;4988185;28;20263;-68
2023/03/25 02:45:29;;;;;;;1.20;0.60;;;11.50;99.90;;;;;;4965831;28;20271;-67
2023/03/25 02:48:01;;;;;;;1.92;0.90;;;11.50;99.90;;;;;;4962341;28;20274;-68
2023/03/25 02:50:33;;;;;;;2.80;0.90;;;11.50;99.90;;;;;;4984153;28;20165;-64
2023/03/25 02:53:07;;;;;;;1.73;0.80;;;11.50;99.90;;;;;;4973750;28;20208;-69
2023/03/25 02:55:36;;;;;;;1.33;0.57;;;11.40;99.90;;;;;;4982524;28;20176;-68
2023/03/25 02:58:08;;;;;;;1.42;0.60;;;11.40;99.90;;;;;;4994597;28;20188;-68
2023/03/25 03:00:37;;;;;;;1.77;0.70;;;11.40;99.90;;;;;;4994129;28;20172;-68
2023/03/25 03:03:04;;;;;;;1.85;0.70;;;11.40;99.90;;;;;;4994395;28;20179;-69
2023/03/25 03:05:40;;;;;;;3.53;0.80;;;11.40;99.90;;;;;;4978042;28;20196;-68
2023/03/25 03:08:30;;;;;;;2.63;1.00;;;11.40;99.90;;;;;;4977776;28;20214;-69
2023/03/25 03:11:26;;;;;;;1.88;0.90;;;11.40;99.90;;;;;;4989933;28;20180;-69
2023/03/25 03:13:57;;;;;;;2.40;0.80;;;11.40;99.90;;;;;;4977835;28;20203;-66
2023/03/25 03:16:57;;;;;;;3.50;0.95;;;11.40;99.90;;;;;;4994262;28;20207;-68
2023/03/25 03:19:44;;;;;;;1.80;0.70;;;11.40;99.90;;;;;;4981222;28;20210;-68
2023/03/25 03:22:13;;;;;;;2.60;0.90;;;11.40;99.90;;;;;;4994386;28;20427;-68
2023/03/25 03:24:43;;;;;;;2.45;0.73;;;11.40;99.90;;;;;;4961889;28;20271;-68
2023/03/25 03:27:26;;;;;;;1.83;0.80;;;11.50;99.90;;;;;;4993631;28;20198;-69
2023/03/25 03:30:05;;;;;;;0.88;0.65;;;11.50;99.90;;;;;;4976642;28;20211;-69
2023/03/25 03:33:01;;;;;;;2.30;0.73;;;11.50;99.90;;;;;;4978012;28;20211;-66
2023/03/25 03:35:40;;;;;;;1.13;0.60;;;11.50;99.90;;;;;;4994296;28;20251;-65
2023/03/25 03:38:13;;;;;;;1.80;0.70;;;11.50;99.90;;;;;;4978236;28;20205;-65
2023/03/25 03:40:47;;;;;;;2.45;0.80;;;11.50;99.90;;;;;;4981739;28;20279;-64
2023/03/25 03:43:38;;;;;;;2.08;0.90;;;11.50;99.90;;;;;;4980832;28;20169;-65
2023/03/25 03:46:12;;;;;;;2.05;0.80;;;11.50;99.90;;;;;;4985286;28;20258;-65
2023/03/25 03:48:44;;;;;;;2.58;0.70;;;11.50;99.90;;;;;;4977704;28;20203;-65
2023/03/25 03:51:17;;;;;;;2.50;0.90;;;11.40;99.90;;;;;;4977803;28;20203;-65
2023/03/25 03:53:57;;;;;;;2.58;0.73;;;11.50;99.90;;;;;;4974402;28;20212;-66
2023/03/25 03:56:35;;;;;;;1.05;0.73;;;11.40;99.90;;;;;;4974798;28;20176;-66
2023/03/25 03:59:11;;;;;;;1.23;0.70;;;11.40;99.90;;;;;;4977217;28;20180;-66
2023/03/25 04:01:48;;;;;;;0.95;0.60;;;11.30;99.90;;;;;;4978047;28;20168;-66
2023/03/25 04:04:19;;;;;;;2.22;0.70;;;11.30;99.90;;;;;;4980652;28;20198;-67
2023/03/25 04:07:24;;;;;;;2.53;0.80;;;11.30;99.90;;;;;;4979829;28;20168;-65
2023/03/25 04:10:07;;;;;;;2.28;0.63;;;11.30;99.90;;;;;;4974163;28;20200;-66
2023/03/25 04:12:39;;;;;;;2.10;0.60;;;11.20;99.90;;;;;;4958545;28;20192;-66
2023/03/25 04:15:06;;;;;;;1.67;0.80;;;11.20;99.90;;;;;;4968649;28;20204;-65
2023/03/25 04:17:34;;;;;;;1.50;0.65;;;11.20;99.90;;;;;;4977310;28;20192;-66
2023/03/25 04:20:07;;;;;;;1.90;0.73;;;11.20;99.90;;;;;;4989794;28;20211;-66
2023/03/25 04:22:32;;;;;;;1.63;0.93;;;11.20;99.90;;;;;;4977144;28;20180;-65
2023/03/25 04:24:59;;;;;;;2.00;0.70;;;11.10;99.90;;;;;;4993232;28;20179;-67
2023/03/25 04:27:28;;;;;;;2.33;0.88;;;11.10;99.90;;;;;;4975574;28;20211;-66
2023/03/25 04:29:56;;;;;;;0.60;0.50;;;11.10;99.90;;;;;;4987700;28;20271;-66
2023/03/25 04:32:27;;;;;;;1.63;0.60;;;11.10;99.90;;;;;;4989969;28;20186;-65
2023/03/25 04:34:56;;;;;;;3.08;0.80;;;11.10;99.90;;;;;;4992068;28;20282;-66
2023/03/25 04:37:26;;;;;;;2.72;0.80;;;11.00;99.90;;;;;;4975102;28;20192;-67
2023/03/25 04:39:58;;;;;;;2.20;0.80;;;11.10;99.90;;;;;;4975804;28;20188;-66
2023/03/25 04:42:31;;;;;;;1.88;0.70;;;11.10;99.90;;;;;;4975959;28;20191;-66
2023/03/25 04:44:58;;;;;;;2.17;0.70;;;11.10;99.90;;;;;;4988875;28;20268;-65
2023/03/25 04:47:26;;;;;;;1.95;0.70;;;11.00;99.90;;;;;;4973476;28;20197;-66
2023/03/25 04:49:52;;;;;;;2.60;1.08;;;11.10;99.90;;;;;;4972141;28;20176;-67
2023/03/25 04:52:17;;;;;;;1.83;0.80;;;11.10;99.90;;;;;;4992363;28;20330;-66
2023/03/25 04:54:46;;;;;;;1.27;0.65;;;11.10;99.90;;;;;;4985257;28;20212;-66
2023/03/25 04:57:11;;;;;;;2.90;0.90;;;11.10;99.90;;;;;;4988757;28;20168;-67
2023/03/25 04:59:37;;;;;;;2.50;1.00;;;11.10;99.90;;;;;;4988882;28;20187;-66
2023/03/25 05:02:11;;;;;;;1.75;0.75;;;11.10;99.90;;;;;;4991673;28;20246;-67
2023/03/25 05:04:46;;;;;;;2.15;0.70;;;11.10;99.90;;;;;;4967192;28;20195;-66
2023/03/25 05:07:11;;;;;;;4.03;1.08;;;11.10;99.90;;;;;;4975936;28;20209;-65
2023/03/25 05:09:37;;;;;;;0.98;0.55;;;11.10;99.90;;;;;;4972831;28;20177;-65
2023/03/25 05:12:09;;;;;;;1.35;0.70;;;11.10;99.90;;;;;;4973192;28;20176;-66
2023/03/25 05:14:38;;;;;;;2.97;1.00;;;11.10;99.90;;;;;;4975609;28;20200;-65
2023/03/25 05:17:03;;;;;;;2.15;1.13;;;11.00;99.90;;;;;;4991138;28;20304;-65
2023/03/25 05:19:29;;;;;;;1.88;0.82;;;11.00;99.90;;;;;;4975829;28;20211;-65
2023/03/25 05:21:55;;;;;;;3.70;0.90;;;11.00;99.90;;;;;;4990590;28;20232;-65
2023/03/25 05:24:21;;;;;;;3.13;0.70;;;11.00;99.90;;;;;;4975794;28;20199;-65
2023/03/25 05:26:46;;;;;;;1.85;0.50;;;11.10;99.90;;;;;;4992574;28;20179;-65
2023/03/25 05:29:16;;;;;;;1.92;0.63;;;11.00;99.90;;;;;;4991259;28;20176;-65
2023/03/25 05:31:44;;;;;;;3.45;0.90;;;11.00;99.90;;;;;;4976418;28;20176;-65
2023/03/25 05:34:10;;;;;;;3.40;1.00;;;11.00;99.90;;;;;;4986806;28;20196;-66
2023/03/25 05:36:38;;;;;;;3.10;0.90;;;11.00;99.90;;;;;;4975002;28;20291;-66
2023/03/25 05:39:04;;;;;;;2.42;0.90;;;11.00;99.90;;;;;;4969485;28;20179;-66
2023/03/25 05:41:37;;;;;;;1.85;0.70;;;11.00;99.90;;;;;;4956512;29;20200;-66
2023/03/25 05:44:05;;;;;;;2.10;0.88;;;11.00;99.90;;;;;;4956423;28;20228;-66
2023/03/25 05:46:35;;;;;;;1.20;0.45;;;10.90;99.90;;;;;;4972676;28;20203;-65
2023/03/25 05:49:03;;;;;;;2.22;0.82;;;11.00;99.90;;;;;;4991880;28;20188;-65
2023/03/25 05:51:40;;;;;;;2.88;0.80;;;11.00;99.90;;;;;;4991491;28;20242;-67
2023/03/25 05:54:11;;;;;;;3.15;0.80;;;11.00;99.90;;;;;;4967964;28;20207;-66
2023/03/25 05:56:40;;;;;;;3.42;0.80;;;11.00;99.90;;;;;;4983201;28;20175;-66
2023/03/25 05:59:09;;;;;;;3.13;0.60;;;11.00;99.90;;;;;;4991224;28;20394;-67
2023/03/25 06:01:37;;;;;;;3.10;0.82;;;10.90;99.90;;;;;;4990085;28;20200;-67
2023/03/25 06:04:03;;;;;;;3.50;0.90;;;11.00;99.90;;;;;;4984154;28;20203;-67
2023/03/25 06:06:32;;;;;;;2.05;0.80;;;11.00;99.90;;;;;;4991752;28;20175;-66
2023/03/25 06:08:58;;;;;;;2.15;0.70;;;11.00;99.90;;;;;;4991601;28;20187;-66
2023/03/25 06:11:24;;;;;;;4.00;0.70;;;11.00;99.90;;;;;;4991580;28;20191;-66
2023/03/25 06:13:52;;;;;;;2.40;0.60;;;11.00;99.90;;;;;;4974170;28;20204;-66
2023/03/25 06:16:20;;;;;;;2.30;1.10;;;11.10;99.90;;;;;;4975995;28;20204;-66
2023/03/25 06:18:54;;;;;;;2.58;0.80;;;11.10;99.90;;;;;;4975235;28;20180;-66
2023/03/25 06:21:21;;;;;;;2.40;0.82;;;11.20;99.90;;;;;;4979194;28;20211;-67
2023/03/25 06:23:49;;;;;;;4.18;1.00;;;11.10;99.90;;;;;;4990906;28;20210;-66
2023/03/25 06:26:16;;;;;;;2.63;0.80;;;11.10;99.90;;;;;;4990819;28;20184;-67
2023/03/25 06:28:42;;;;;;;5.18;1.30;;;11.10;99.90;;;;;;4989186;28;20231;-66
2023/03/25 06:31:15;;;;;;;3.08;1.00;;;11.20;99.90;;;;;;4991538;28;20238;-67
2023/03/25 06:33:42;;;;;;;2.53;1.00;;;11.20;99.90;;;;;;4991166;28;20207;-68
2023/03/25 06:36:11;;;;;;;2.67;0.90;;;11.30;99.90;;;;;;4975306;28;20236;-68
2023/03/25 06:38:38;;;;;;;2.90;1.13;;;11.20;99.90;;;;;;4975128;28;20180;-67
2023/03/25 06:41:06;;;;;;;3.22;1.00;;;11.30;99.90;;;;;;4971540;28;20225;-67
2023/03/25 06:43:37;;;;;;;3.58;1.17;;;11.30;99.90;;;;;;4962418;28;20192;-67
2023/03/25 06:46:03;;;;;;;5.03;1.20;;;11.30;99.90;;;;;;4974420;28;20267;-67
2023/03/25 06:48:28;;;;;;;5.22;1.10;;;11.40;99.90;;;;;;4990399;28;20295;-68
2023/03/25 06:50:54;;;;;;;1.75;0.73;;;11.40;99.90;;;;;;4991093;28;20209;-67
2023/03/25 06:53:20;;;;;;;1.95;0.80;;;11.50;99.90;;;;;;4985423;28;20196;-67
2023/03/25 06:55:46;;;;;;;3.13;1.08;;;11.40;99.90;;;;;;4993299;28;20173;-67
2023/03/25 06:58:11;;;;;;;2.63;0.77;;;11.50;99.90;;;;;;4971721;28;20235;-67
2023/03/25 07:00:37;;;;;;;2.90;0.85;;;11.60;99.90;;;;;;4992302;28;20203;-66
2023/03/25 07:03:03;;;;;;;2.63;0.80;;;11.60;99.90;;;;;;4978006;28;20259;-67
2023/03/25 07:05:33;;;;;;;3.03;0.75;;;11.60;99.90;;;;;;4978060;28;20215;-67
2023/03/25 07:08:00;;;;;;;2.22;0.75;;;11.60;99.90;;;;;;4994049;28;20291;-66
2023/03/25 07:10:26;;;;;;;1.85;0.98;;;11.60;99.90;;;;;;4986357;28;20258;-66
2023/03/25 07:12:51;;;;;;;3.67;0.80;;;11.50;99.90;;;;;;4992146;28;20430;-66
2023/03/25 07:15:17;;;;;;;2.70;0.80;;;11.40;99.90;;;;;;4975058;28;20442;-65
2023/03/25 07:17:48;;;;;;;2.35;0.70;;;11.30;99.90;;;;;;4979116;28;20183;-66
2023/03/25 07:20:16;;;;;;;3.08;0.68;;;11.10;99.90;;;;;;4974801;28;20196;-66
2023/03/25 07:22:44;;;;;;;1.23;0.77;;;10.90;99.90;;;;;;5006767;28;20175;-67
2023/03/25 07:25:09;;;;;;;2.08;0.68;;;10.70;99.90;;;;;;4994092;28;20180;-67
2023/03/25 07:27:35;;;;;;;2.38;0.82;;;10.70;99.90;;;;;;4977970;28;20183;-66
2023/03/25 07:30:01;;;;;;;3.95;0.90;;;10.60;99.90;;;;;;4978134;28;20184;-67
2023/03/25 07:32:31;;;;;;;2.03;1.10;;;10.60;99.90;;;;;;4977613;28;20183;-67
2023/03/25 07:34:59;;;;;;;2.42;0.90;;;10.50;99.90;;;;;;5008621;28;20280;-68
2023/03/25 07:37:27;;;;;;;2.45;0.70;;;10.50;99.90;;;;;;4977100;28;20191;-67
2023/03/25 07:39:52;;;;;;;2.30;0.90;;;10.60;99.90;;;;;;4976046;28;20176;-66
2023/03/25 07:42:18;;;;;;;5.80;1.17;;;10.60;99.90;;;;;;4993621;28;20242;-67
2023/03/25 07:44:46;;;;;;;2.65;0.95;;;10.60;99.90;;;;;;4980764;28;20180;-67
2023/03/25 07:47:11;;;;;;;2.78;0.80;;;10.60;99.90;;;;;;4993965;28;20180;-67
2023/03/25 07:49:39;;;;;;;1.52;0.55;;;10.60;99.90;;;;;;4993494;28;20243;-66
2023/03/25 07:52:09;;;;;;;3.17;0.60;;;10.60;99.90;;;;;;4974254;28;20204;-67
2023/03/25 07:54:35;;;;;;;1.00;0.47;;;10.60;99.90;;;;;;4958049;29;20208;-67
2023/03/25 07:57:03;;;;;;;1.00;0.40;;;10.60;99.90;;;;;;4968019;28;20172;-67
2023/03/25 07:59:29;;;;;;;0.40;0.35;;;10.60;99.90;;;;;;4977567;28;20176;-66
2023/03/25 08:01:54;;;;;;;0.68;0.30;;;10.50;99.90;;;;;;4974016;28;20300;-66
2023/03/25 08:04:22;;;;;;;0.70;0.40;;;10.50;99.90;;;;;;4993512;28;20191;-67
2023/03/25 08:06:48;;;;;;;1.50;0.47;;;10.50;99.90;;;;;;4992740;28;20381;-67
2023/03/25 08:09:13;;;;;;;1.45;0.40;;;10.50;99.90;;;;;;4977262;28;20187;-66
2023/03/25 08:11:39;;;;;;;0.65;0.38;;;10.40;99.90;;;;;;4975930;28;20187;-66
2023/03/25 08:14:07;;;;;;;1.25;0.40;;;10.40;99.90;;;;;;4993097;28;20206;-67
2023/03/25 08:16:32;;;;;;;0.43;0.30;;;10.50;99.90;;;;;;4992954;28;20172;-66
2023/03/25 08:18:58;;;;;;;0.35;0.30;;;10.40;99.90;;;;;;4993201;28;20182;-67
2023/03/25 08:21:24;;;;;;;0.88;0.30;;;10.40;99.90;;;;;;4992772;28;20206;-67
2023/03/25 08:24:03;;;;;;;0.70;0.38;;;10.40;99.90;;;;;;4960159;28;20205;-67
2023/03/25 08:26:30;;;;;;;0.93;0.60;;;10.40;99.90;;;;;;4981400;28;20218;-67
2023/03/25 08:29:01;;;;;;;2.38;0.50;;;10.40;99.90;;;;;;4973837;28;20230;-67
2023/03/25 08:31:30;;;;;;;0.70;0.45;;;10.40;99.90;;;;;;4976740;28;20169;-67
2023/03/25 08:34:00;;;;;;;2.13;0.73;;;10.40;99.90;;;;;;4992725;28;20221;-66
2023/03/25 08:36:26;;;;;;;0.70;0.40;;;10.40;99.90;;;;;;4976592;28;20180;-67
2023/03/25 08:38:52;;;;;;;1.17;0.52;;;10.50;99.90;;;;;;4989008;28;20267;-66
2023/03/25 08:41:18;;;;;;;2.97;0.43;;;10.50;99.90;;;;;;4976439;28;20284;-66
2023/03/25 08:43:46;;;;;;;2.53;0.60;;;10.60;99.90;;;;;;4973204;28;20192;-66
2023/03/25 08:46:15;;;;;;;1.23;0.52;;;10.70;99.90;;;;;;4957166;29;20184;-67
2023/03/25 08:48:42;;;;;;;1.90;0.50;;;10.80;99.90;;;;;;4975396;28;20225;-67
2023/03/25 08:51:08;;;;;;;2.42;0.93;;;11.00;99.90;;;;;;4995779;28;20203;-68
2023/03/25 08:53:36;;;;;;;3.10;0.85;;;11.10;99.90;;;;;;4997972;28;20207;-67
2023/03/25 08:56:04;;;;;;;1.63;0.60;;;11.10;99.90;;;;;;4996056;28;20168;-67
2023/03/25 08:58:35;;;;;;;3.38;0.90;;;11.30;99.90;;;;;;5017199;28;20175;-67
2023/03/25 09:01:03;;;;;;;2.65;0.80;;;11.40;99.90;;;;;;5012788;28;20163;-67
2023/03/25 09:03:32;;;;;;;1.20;0.47;;;11.50;99.90;;;;;;4999198;28;20184;-67
2023/03/25 09:06:02;;;;;;;2.13;0.82;;;11.70;99.90;;;;;;4975777;28;20203;-67
2023/03/25 09:08:27;;;;;;;3.70;0.70;;;11.80;99.90;;;;;;4972896;28;20215;-67
2023/03/25 09:10:55;;;;;;;2.88;0.80;;;11.90;99.90;;;;;;4964397;28;20204;-66
2023/03/25 09:13:22;;;;;;;2.33;0.70;;;12.00;99.90;;;;;;4975919;28;20218;-67
2023/03/25 09:15:48;;;;;;;3.95;0.88;;;12.10;99.90;;;;;;4975687;28;20195;-68
2023/03/25 09:18:16;;;;;;;4.85;1.30;;;12.20;99.90;;;;;;4975781;28;20234;-67
2023/03/25 09:20:47;;;;;;;2.45;0.80;;;12.20;99.90;;;;;;4975009;28;20176;-67
2023/03/25 09:23:15;;;;;;;3.13;0.80;;;12.30;99.90;;;;;;4991245;28;20172;-66
2023/03/25 09:25:41;;;;;;;3.72;1.08;;;12.30;99.90;;;;;;4992094;28;20226;-67
2023/03/25 09:28:07;;;;;;;4.97;1.25;;;12.50;99.90;;;;;;4990538;28;20191;-66
2023/03/25 09:30:33;;;;;;;3.38;1.10;;;12.40;99.90;;;;;;4977408;28;20176;-66
2023/03/25 09:33:02;;;;;;;3.55;1.05;;;12.50;99.90;;;;;;4972093;28;20200;-67
2023/03/25 09:35:30;;;;;;;3.40;1.08;;;12.60;99.90;;;;;;4973087;28;20173;-66
2023/03/25 09:37:56;;;;;;;2.38;1.10;;;12.70;99.90;;;;;;4975086;28;20203;-66
2023/03/25 09:40:24;;;;;;;3.67;1.20;;;12.80;99.90;;;;;;4991091;28;20176;-66
2023/03/25 09:42:54;;;;;;;3.08;1.10;;;12.90;99.90;;;;;;4991642;28;20191;-66
2023/03/25 09:45:42;;;;;;;7.68;1.90;;;13.00;99.90;;;;;;4986287;28;20187;-66
2023/03/25 09:48:26;;;;;;;5.93;1.30;;;13.10;99.90;;;;;;4972464;28;20188;-67
2023/03/25 09:51:01;;;;;;;5.53;1.15;;;13.10;99.90;;;;;;4984035;28;20273;-68
2023/03/25 09:53:33;;;;;;;3.88;1.20;;;13.10;99.90;;;;;;4975460;28;20343;-67
2023/03/25 09:56:01;;;;;;;4.70;1.02;;;13.10;99.90;;;;;;5004725;28;20171;-67
2023/03/25 09:58:36;;;;;;;3.10;1.20;;;13.20;99.90;;;;;;4972326;28;20176;-66
2023/03/25 10:01:21;;;;;;;4.05;1.30;;;13.10;99.90;;;;;;4975343;28;20187;-66
2023/03/25 10:03:59;;;;;;;3.55;0.80;;;13.20;99.90;;;;;;4991368;28;20219;-66
2023/03/25 10:06:25;;;;;;;6.63;1.10;;;13.20;99.90;;;;;;4991355;28;20176;-66
2023/03/25 10:09:47;;;;;;;4.68;1.35;;;13.20;99.90;;;;;;4981276;28;20366;-66
2023/03/25 10:12:29;;;;;;;3.58;1.23;;;13.30;99.90;;;;;;4923406;29;20265;-67
2023/03/25 10:15:27;;;;;;;4.05;1.17;;;13.50;99.90;;;;;;4919910;29;20195;-67
2023/03/25 10:18:23;;;;;;;4.43;1.50;;;13.60;99.90;;;;;;4982033;28;20191;-66
2023/03/25 10:21:22;;;;;;;4.75;1.52;;;13.70;99.90;;;;;;4988082;28;20195;-67
2023/03/25 10:24:21;;;;;;;7.53;1.13;;;13.70;99.90;;;;;;4988350;28;20283;-66
2023/03/25 10:27:14;;;;;;;5.47;1.20;;;13.70;99.90;;;;;;4980311;28;20211;-67
2023/03/25 10:29:58;;;;;;;6.07;1.50;;;13.60;99.90;;;;;;4974204;28;20204;-66
2023/03/25 10:32:50;;;;;;;4.88;1.42;;;13.60;99.90;;;;;;4990205;28;20172;-67
2023/03/25 10:35:20;;;;;;;4.45;1.10;;;13.40;99.90;;;;;;4975603;28;20204;-67
2023/03/25 10:37:52;;;;;;;7.57;1.30;;;13.40;99.90;;;;;;5012472;28;20214;-67
2023/03/25 10:40:26;;;;;;;5.68;1.30;;;13.40;99.90;;;;;;4978139;28;20255;-66
2023/03/25 10:42:59;;;;;;;4.55;1.25;;;13.60;99.90;;;;;;5005701;28;20199;-66
2023/03/25 10:45:27;;;;;;;3.85;0.90;;;13.90;99.90;;;;;;4994393;28;20447;-66
2023/03/25 10:48:06;;;;;;;5.82;1.38;;;14.30;99.90;;;;;;4977579;28;20180;-67
2023/03/25 10:50:31;;;;;;;5.97;1.30;;;14.70;99.90;;;;;;4994104;28;20219;-65
2023/03/25 10:52:58;;;;;;;3.65;0.90;;;15.10;99.90;;;;;;4983459;28;20192;-66
2023/03/25 10:55:33;;;;;;;2.78;1.30;;;15.40;99.90;;;;;;4994337;28;20203;-67
2023/03/25 10:58:02;;;;;;;3.33;0.90;;;15.50;99.90;;;;;;4993825;28;20289;-66
2023/03/25 11:00:29;;;;;;;3.25;1.02;;;15.60;99.90;;;;;;4977906;28;20168;-66
2023/03/25 11:02:55;;;;;;;3.15;0.98;;;15.80;99.90;;;;;;4974551;28;20300;-67
2023/03/25 11:05:27;;;;;;;3.40;0.95;;;15.80;99.90;;;;;;4963232;28;20181;-66
2023/03/25 11:08:04;;;;;;;3.80;1.08;;;15.90;99.90;;;;;;4974580;28;20201;-66
2023/03/25 11:10:34;;;;;;;2.45;1.00;;;15.90;99.90;;;;;;4984290;28;20172;-67
2023/03/25 11:13:05;;;;;;;3.95;1.25;;;15.90;99.90;;;;;;4976929;28;20204;-66
2023/03/25 11:15:36;;;;;;;5.32;1.17;;;16.00;99.90;;;;;;4994014;28;20168;-68
2023/03/25 11:18:13;;;;;;;4.28;1.13;;;15.90;99.90;;;;;;4988979;28;20187;-67
2023/03/25 11:20:44;;;;;;;2.30;1.13;;;15.80;99.90;;;;;;4986558;28;20238;-67
2023/03/25 11:23:33;;;;;;;5.30;1.30;;;15.50;99.90;;;;;;4978082;28;20175;-67
2023/03/25 11:26:18;;;;;;;4.20;1.38;;;15.30;99.90;;;;;;4993368;28;20404;-66
2023/03/25 11:28:55;;;;;;;3.50;1.02;;;15.10;99.90;;;;;;4995983;28;20207;-67
2023/03/25 11:31:24;;;;;;;3.65;1.00;;;15.00;99.90;;;;;;4977535;28;20417;-67
2023/03/25 11:34:11;;;;;;;2.83;1.08;;;15.00;99.90;;;;;;4976945;28;20204;-69
2023/03/25 11:36:51;;;;;;;4.20;1.00;;;15.00;99.90;;;;;;4993417;28;20172;-67
2023/03/25 11:39:44;;;;;;;3.17;1.05;;;15.10;99.90;;;;;;4993832;28;20206;-66
2023/03/25 11:42:15;;;;;;;4.32;1.17;;;15.20;99.90;;;;;;4977190;28;20212;-67
2023/03/25 11:44:49;;;;;;;1.88;0.82;;;15.20;99.90;;;;;;4991128;28;20199;-66
2023/03/25 11:47:25;;;;;;;2.25;0.93;;;15.20;99.90;;;;;;4976954;28;20168;-66
2023/03/25 11:49:52;;;;;;;3.00;1.13;;;15.10;99.90;;;;;;4976407;28;20230;-66
2023/03/25 11:52:25;;;;;;;5.28;1.30;;;15.10;99.90;;;;;;4975950;28;20290;-67
2023/03/25 11:54:55;;;;;;;4.20;1.27;;;15.20;99.90;;;;;;4995241;28;20214;-67
2023/03/25 11:57:40;;;;;;;5.75;1.38;;;15.30;99.90;;;;;;4973461;28;20176;-65
2023/03/25 12:00:26;;;;;;;3.42;1.10;;;15.40;99.90;;;;;;4980943;28;20179;-66
2023/03/25 12:03:31;;;;;;;3.42;1.00;;;15.60;99.90;;;;;;4965079;28;20203;-66
2023/03/25 12:06:20;;;;;;;3.28;1.27;;;15.70;99.90;;;;;;4949239;28;20222;-67
2023/03/25 12:08:50;;;;;;;4.95;1.42;;;15.70;99.90;;;;;;4971810;28;20196;-68
2023/03/25 12:11:31;;;;;;;4.28;1.20;;;15.70;99.90;;;;;;4972416;28;20177;-67
2023/03/25 12:14:30;;;;;;;2.95;1.25;;;15.50;99.90;;;;;;4983619;28;20187;-66
2023/03/25 12:17:18;;;;;;;6.07;1.50;;;15.40;99.90;;;;;;4992476;28;20184;-66
2023/03/25 12:20:04;;;;;;;2.53;1.00;;;15.30;99.90;;;;;;4985106;28;20176;-68
2023/03/25 12:22:41;;;;;;;3.03;1.20;;;15.30;99.90;;;;;;4972986;28;20223;-66
2023/03/25 12:25:08;;;;;;;1.90;0.73;;;15.40;99.90;;;;;;4984292;28;20213;-68
2023/03/25 12:27:59;;;;;;;6.10;3.00;;;15.50;99.90;;;;;;4985807;28;20203;-68
2023/03/25 12:30:50;;;;;;;5.43;1.35;;;15.60;99.90;;;;;;4990460;28;20230;-68
2023/03/25 12:33:44;;;;;;;3.33;1.00;;;15.80;99.90;;;;;;4981961;28;20304;-67
2023/03/25 12:36:27;;;;;;;3.45;1.20;;;15.80;99.90;;;;;;4986265;28;20176;-66
2023/03/25 12:39:22;;;;;;;4.93;1.20;;;15.80;99.90;;;;;;4978453;28;20180;-66
2023/03/25 12:42:02;;;;;;;6.20;1.25;;;15.80;99.90;;;;;;4964665;28;20184;-67
2023/03/25 12:44:42;;;;;;;3.13;1.08;;;15.80;99.90;;;;;;4986503;28;20191;-66
2023/03/25 12:47:25;;;;;;;3.30;1.33;;;15.80;99.90;;;;;;4996928;28;20172;-66
2023/03/25 12:50:16;;;;;;;3.95;1.30;;;15.90;99.90;;;;;;4991730;28;20223;-66
2023/03/25 12:52:51;;;;;;;2.72;1.20;;;16.00;99.90;;;;;;4980556;28;20247;-66
2023/03/25 12:55:35;;;;;;;2.85;1.10;;;16.10;99.90;;;;;;4992586;28;20269;-67
2023/03/25 12:58:23;;;;;;;2.50;1.00;;;16.20;99.90;;;;;;4984764;28;20215;-67
2023/03/25 13:01:13;;;;;;;3.88;1.23;;;16.20;99.90;;;;;;4992561;28;20225;-67
2023/03/25 13:04:08;;;;;;;3.67;1.23;;;16.20;99.90;;;;;;4992020;28;20188;-66
2023/03/25 13:06:59;;;;;;;4.43;1.58;;;16.30;99.90;;;;;;4985676;28;20201;-66
2023/03/25 13:09:27;;;;;;;5.28;1.20;;;16.30;99.90;;;;;;4979696;28;20192;-68
2023/03/25 13:12:25;;;;;;;2.58;1.00;;;16.40;99.90;;;;;;4994669;28;20222;-67
2023/03/25 13:15:16;;;;;;;5.15;1.30;;;16.40;99.90;;;;;;4978786;28;20215;-66
2023/03/25 13:17:56;;;;;;;4.38;1.27;;;16.40;99.90;;;;;;4992194;28;20184;-66